Atkinson, Nebraska
Current Conditions -  °F | °C
As of 9:15 PM on Thursday 18 Dec 2014 (Local Time) from KONL Reporting Station
Overcast Overcast  
Wind Chill: -5°   Ceiling: 1300
Heat Index: -2°   Visibility: 10mi
Dew Point: -3°   Wind: 5mph
Humidity: 95%   Direction: 170°S
Pressure: 30.13"   Gusts: NA
Location:  42.53°N, 98.98°W
Report Text: KONL 190315Z AUTO 17004KT 10SM OVC013 M02/M03 A3013 RMK AO2 T10191026
Loading
Personal Weather Stations






























Interactive Weather Map New forecast layout! Learn more

10-Day Weather Forecast

Advertisements
Track Severe Weather on mobile